aviador You're here:

ZWWW Decoded Metar

URUMQI in CHINA
Report Time2017-04-30 14:30:00
UTC Time2017-04-30 14:55:06
Flight Rules mvfr MVFR
Wind260° at 8 kt
W.Decomp.*RWY 25: 7.9 kt HW 1.0 kt RCW
W.Rank260° ranks 17
Current wind is above 260° avg. (4.3)
Visibility8000 m
Phenomena:Light Rain
Clouds:Broken 011 Hf
Overcast 026 Hf
Expected CloudBase > 400 ft AGL from Temp-Dew spread
Ceiling1,100 ft
Temp08°C (ISA -3)
Dew Point07°C (93% RH)
AAT4.4°C
QNH1025 hPa
Density Alt1,558 ft
Elevation2,146 ft
Report Wrong Elevation
Raw Report
METAR ZWWW 301430Z 26004MPS 8000 -RA BKN011 OVC026 08/07 Q1025
NOSIG=

Extra information for ZWWW:More info

Metar Taf Metar & Taf Last 4 Metars F.Rules Stats Wind Profile Meteogram Temp Stats Airport Information Weather charts Add Link Nearby VenuesMetar ALERT Operation Metar Decoded Social comments